createdAt,value
2023-03-19T00:00:46.555Z,22.20
2023-03-19T00:03:13.964Z,25.90
2023-03-19T00:05:41.339Z,24.42
2023-03-19T00:08:09.106Z,21.75
2023-03-19T00:10:40.324Z,24.85
2023-03-19T00:13:29.713Z,32.15
2023-03-19T00:15:59.364Z,25.13
2023-03-19T00:18:40.260Z,36.60
2023-03-19T00:21:07.786Z,26.98
2023-03-19T00:23:36.851Z,23.40
2023-03-19T00:26:04.738Z,24.23
2023-03-19T00:28:32.016Z,30.27
2023-03-19T00:31:07.052Z,19.42
2023-03-19T00:33:34.359Z,19.25
2023-03-19T00:36:01.685Z,18.98
2023-03-19T00:38:29.676Z,21.38
2023-03-19T00:40:57.231Z,24.88
2023-03-19T00:43:25.211Z,25.33
2023-03-19T00:45:52.414Z,26.70
2023-03-19T00:48:19.840Z,24.33
2023-03-19T00:50:47.689Z,30.58
2023-03-19T00:53:15.287Z,25.25
2023-03-19T00:55:43.097Z,26.67
2023-03-19T00:58:10.663Z,25.92
2023-03-19T01:00:40.621Z,31.40
2023-03-19T01:03:08.376Z,24.10
2023-03-19T01:08:03.923Z,25.88
2023-03-19T01:10:33.396Z,21.98
2023-03-19T01:13:01.070Z,26.23
2023-03-19T01:15:28.610Z,20.23
2023-03-19T01:17:56.524Z,29.92
2023-03-19T01:20:24.388Z,28.35
2023-03-19T01:22:51.780Z,24.90
2023-03-19T01:25:19.147Z,22.25
2023-03-19T01:27:46.957Z,32.72
2023-03-19T01:30:15.156Z,26.48
2023-03-19T01:32:42.483Z,24.45
2023-03-19T01:35:10.150Z,28.40
2023-03-19T01:37:37.824Z,23.30
2023-03-19T01:40:06.370Z,27.83
2023-03-19T01:42:34.482Z,22.90
2023-03-19T01:45:04.202Z,30.45
2023-03-19T01:47:36.235Z,28.65
2023-03-19T01:50:05.295Z,26.13
2023-03-19T01:52:35.179Z,29.35
2023-03-19T01:55:07.685Z,27.05
2023-03-19T01:57:36.258Z,25.05
2023-03-19T02:00:08.900Z,26.35
2023-03-19T02:02:39.044Z,26.73
2023-03-19T02:05:15.802Z,24.50
2023-03-19T02:07:46.329Z,29.50
2023-03-19T02:10:16.764Z,26.50
2023-03-19T02:12:44.131Z,28.08
2023-03-19T02:15:12.076Z,24.60
2023-03-19T02:17:41.258Z,27.10
2023-03-19T02:20:16.430Z,23.73
2023-03-19T02:22:52.437Z,25.42
2023-03-19T02:25:36.612Z,28.42
2023-03-19T02:28:04.351Z,29.48
2023-03-19T02:30:34.336Z,28.52
2023-03-19T02:33:01.822Z,29.58
2023-03-19T02:35:33.415Z,27.05
2023-03-19T02:38:03.728Z,29.15
2023-03-19T02:40:36.636Z,30.83
2023-03-19T02:43:04.600Z,29.58
2023-03-19T02:45:32.580Z,31.63
2023-03-19T02:48:00.408Z,24.85
2023-03-19T02:50:28.049Z,26.65
2023-03-19T02:52:55.529Z,37.50
2023-03-19T02:55:22.836Z,28.92
2023-03-19T02:57:50.114Z,34.25
2023-03-19T03:00:19.024Z,32.78
2023-03-19T03:02:46.320Z,28.45
2023-03-19T03:05:14.715Z,28.33
2023-03-19T03:07:43.818Z,28.95
2023-03-19T03:10:12.122Z,29.20
2023-03-19T03:12:39.477Z,41.97
2023-03-19T03:15:08.977Z,32.85
2023-03-19T03:17:44.044Z,46.67
2023-03-19T03:20:13.479Z,25.95
2023-03-19T03:22:41.736Z,29.98
2023-03-19T03:25:10.720Z,29.35
2023-03-19T03:27:39.398Z,33.30
2023-03-19T03:30:09.236Z,26.75
2023-03-19T03:32:38.522Z,25.00
2023-03-19T03:35:06.758Z,25.92
2023-03-19T03:37:34.271Z,26.75
2023-03-19T03:40:07.079Z,28.92
2023-03-19T03:42:36.538Z,30.77
2023-03-19T03:45:06.547Z,28.77
2023-03-19T03:47:33.991Z,24.23
2023-03-19T03:50:01.502Z,27.58
2023-03-19T03:52:31.655Z,24.17
2023-03-19T03:54:59.217Z,27.48
2023-03-19T03:57:27.876Z,28.73
2023-03-19T03:59:55.517Z,25.15
2023-03-19T04:02:23.307Z,30.48
2023-03-19T04:04:50.315Z,26.30
2023-03-19T04:07:17.510Z,31.05
2023-03-19T04:09:46.444Z,20.70
2023-03-19T04:12:14.499Z,25.42
2023-03-19T04:14:42.012Z,23.50
2023-03-19T04:17:09.247Z,26.00
2023-03-19T04:19:36.635Z,27.13
2023-03-19T04:22:03.890Z,25.15
2023-03-19T04:24:31.222Z,28.50
2023-03-19T04:26:58.582Z,24.20
2023-03-19T04:29:26.671Z,28.25
2023-03-19T04:31:54.149Z,31.98
2023-03-19T04:34:21.352Z,23.23
2023-03-19T04:36:49.280Z,25.70
2023-03-19T04:39:16.649Z,26.92
2023-03-19T04:41:44.273Z,26.05
2023-03-19T04:44:12.216Z,22.10
2023-03-19T04:46:39.806Z,25.17
2023-03-19T04:49:07.254Z,27.02
2023-03-19T04:51:34.744Z,33.25
2023-03-19T04:54:02.257Z,23.88
2023-03-19T04:56:29.748Z,25.35
2023-03-19T04:58:57.197Z,26.52
2023-03-19T05:01:24.804Z,22.73
2023-03-19T05:03:54.501Z,25.38
2023-03-19T05:06:21.724Z,21.30
2023-03-19T05:08:48.884Z,26.63
2023-03-19T05:11:16.935Z,21.70
2023-03-19T05:13:44.142Z,21.77
2023-03-19T05:16:11.784Z,24.15
2023-03-19T05:18:41.251Z,22.92
2023-03-19T05:21:12.388Z,26.45
2023-03-19T05:23:40.273Z,28.30
2023-03-19T05:26:08.736Z,22.48
2023-03-19T05:28:36.161Z,21.48
2023-03-19T05:31:05.372Z,22.75
2023-03-19T05:33:32.661Z,22.20
2023-03-19T05:36:00.041Z,23.48
2023-03-19T05:38:27.448Z,24.17
2023-03-19T05:40:54.686Z,26.27
2023-03-19T05:43:22.029Z,27.02
2023-03-19T05:45:53.107Z,25.58
2023-03-19T05:48:20.693Z,25.88
2023-03-19T05:50:48.498Z,25.30
2023-03-19T05:53:15.712Z,22.55
2023-03-19T05:55:44.974Z,25.40
2023-03-19T05:58:12.608Z,23.52
2023-03-19T06:00:39.814Z,21.15
2023-03-19T06:03:07.980Z,22.98
2023-03-19T06:05:35.760Z,22.88
2023-03-19T06:08:03.242Z,24.13
2023-03-19T06:10:30.753Z,22.58
2023-03-19T06:12:58.131Z,24.60
2023-03-19T06:15:25.578Z,26.55
2023-03-19T06:17:52.792Z,28.33
2023-03-19T06:20:20.115Z,29.52
2023-03-19T06:22:47.479Z,28.30
2023-03-19T06:25:14.898Z,27.63
2023-03-19T06:27:43.010Z,27.52
2023-03-19T06:30:10.847Z,20.20
2023-03-19T06:32:38.828Z,30.27
2023-03-19T06:35:06.784Z,23.60
2023-03-19T06:37:34.015Z,25.10
2023-03-19T06:40:01.546Z,28.95
2023-03-19T06:42:29.354Z,25.77
2023-03-19T06:44:56.738Z,18.42
2023-03-19T06:47:24.068Z,18.67
2023-03-19T06:49:51.674Z,18.92
2023-03-19T06:52:19.118Z,21.85
2023-03-19T06:54:46.313Z,20.75
2023-03-19T06:57:15.125Z,19.63
2023-03-19T06:59:42.492Z,18.88
2023-03-19T07:02:12.330Z,24.90
2023-03-19T07:04:40.648Z,19.70
2023-03-19T07:07:08.099Z,24.13
2023-03-19T07:09:35.229Z,25.08
2023-03-19T07:12:02.581Z,18.30
2023-03-19T07:14:29.900Z,19.80
2023-03-19T07:16:57.404Z,16.60
2023-03-19T07:19:24.654Z,17.50
2023-03-19T07:21:51.859Z,16.77
2023-03-19T07:24:19.078Z,19.17
2023-03-19T07:26:46.644Z,18.30
2023-03-19T07:29:15.225Z,15.73
2023-03-19T07:31:44.895Z,17.17
2023-03-19T07:34:14.039Z,12.63
2023-03-19T07:36:41.464Z,15.75
2023-03-19T07:39:09.202Z,12.77
2023-03-19T07:41:36.380Z,14.38
2023-03-19T07:44:03.778Z,14.15
2023-03-19T07:46:32.107Z,11.82
2023-03-19T07:48:59.568Z,13.95
2023-03-19T07:51:26.966Z,16.45
2023-03-19T07:56:33.807Z,11.43
2023-03-19T07:59:01.057Z,9.88
2023-03-19T08:01:28.536Z,12.15
2023-03-19T08:03:56.207Z,10.88
2023-03-19T08:06:24.144Z,10.98
2023-03-19T08:08:51.683Z,11.73
2023-03-19T08:11:19.959Z,14.27
2023-03-19T08:13:47.386Z,11.85
2023-03-19T08:16:14.731Z,8.65
2023-03-19T08:18:42.829Z,11.25
2023-03-19T08:21:10.016Z,9.80
2023-03-19T08:23:38.860Z,18.00
2023-03-19T08:26:06.749Z,12.48
2023-03-19T08:28:34.237Z,10.15
2023-03-19T08:31:11.519Z,11.57
2023-03-19T08:33:39.724Z,10.40
2023-03-19T08:36:12.623Z,10.98
2023-03-19T08:38:42.329Z,11.90
2023-03-19T08:41:12.706Z,11.70
2023-03-19T08:43:43.090Z,9.95
2023-03-19T08:46:10.716Z,14.63
2023-03-19T08:48:40.939Z,10.43
2023-03-19T08:51:10.944Z,11.23
2023-03-19T08:53:39.133Z,9.27
2023-03-19T08:56:11.265Z,9.43
2023-03-19T08:58:38.558Z,8.85
2023-03-19T09:01:12.961Z,11.15
2023-03-19T09:03:42.545Z,10.55
2023-03-19T09:06:14.744Z,9.30
2023-03-19T09:08:42.549Z,6.57
2023-03-19T09:11:11.262Z,8.93
2023-03-19T09:13:39.769Z,7.57
2023-03-19T09:16:07.110Z,10.23
2023-03-19T09:18:35.896Z,11.25
2023-03-19T09:21:04.148Z,7.45
2023-03-19T09:23:31.702Z,7.28
2023-03-19T09:26:00.076Z,7.30
2023-03-19T09:28:27.522Z,8.30
2023-03-19T09:30:54.917Z,10.85
2023-03-19T09:33:23.654Z,10.43
2023-03-19T09:35:58.793Z,9.57
2023-03-19T09:38:26.152Z,8.25
2023-03-19T09:41:07.407Z,9.13
2023-03-19T09:43:43.386Z,7.38
2023-03-19T09:46:22.517Z,7.82
2023-03-19T09:49:09.609Z,8.20
2023-03-19T09:51:47.889Z,7.50
2023-03-19T09:54:30.275Z,9.82
2023-03-19T09:56:57.861Z,7.90
2023-03-19T09:59:27.827Z,9.48
2023-03-19T10:02:00.290Z,20.23
2023-03-19T10:04:49.176Z,11.32
2023-03-19T10:07:26.831Z,10.60
2023-03-19T10:10:13.460Z,11.48
2023-03-19T10:13:06.975Z,7.47
2023-03-19T10:15:38.005Z,7.28
2023-03-19T10:18:17.618Z,7.18
2023-03-19T10:21:20.534Z,8.10
2023-03-19T10:24:31.684Z,10.55
2023-03-19T10:27:03.117Z,9.57
2023-03-19T10:29:30.988Z,8.68
2023-03-19T10:32:39.461Z,8.77
2023-03-19T10:35:28.161Z,5.80
2023-03-19T10:37:56.171Z,9.50
2023-03-19T10:40:34.841Z,7.35
2023-03-19T10:43:17.224Z,7.78
2023-03-19T10:45:50.273Z,10.00
2023-03-19T10:48:22.373Z,7.13
2023-03-19T10:51:01.693Z,8.68
2023-03-19T10:53:36.064Z,12.38
2023-03-19T10:56:25.525Z,8.60
2023-03-19T10:59:06.060Z,10.98
2023-03-19T11:01:42.438Z,12.13
2023-03-19T11:04:22.495Z,7.65
2023-03-19T11:07:02.380Z,6.25
2023-03-19T11:09:41.784Z,22.90
2023-03-19T11:12:19.767Z,16.23
2023-03-19T11:14:50.377Z,13.18
2023-03-19T11:17:17.801Z,10.07
2023-03-19T11:19:52.872Z,5.00
2023-03-19T11:22:28.914Z,7.57
2023-03-19T11:25:19.243Z,7.47
2023-03-19T11:28:02.408Z,7.07
2023-03-19T11:30:56.168Z,9.52
2023-03-19T11:33:42.881Z,8.93
2023-03-19T11:36:32.775Z,5.82
2023-03-19T11:39:31.228Z,5.97
2023-03-19T11:42:07.880Z,11.85
2023-03-19T11:44:44.553Z,11.13
2023-03-19T11:47:43.939Z,8.00
2023-03-19T11:50:24.983Z,7.50
2023-03-19T11:53:04.680Z,7.80
2023-03-19T11:55:39.507Z,10.50
2023-03-19T11:58:36.665Z,7.05
2023-03-19T12:01:23.320Z,8.02
2023-03-19T12:04:17.768Z,5.97
2023-03-19T12:07:21.084Z,6.82
2023-03-19T12:10:03.532Z,5.93
2023-03-19T12:12:54.192Z,3.35
2023-03-19T12:15:27.806Z,5.38
2023-03-19T12:18:32.761Z,9.48
2023-03-19T12:21:05.590Z,5.63
2023-03-19T12:23:44.873Z,5.82
2023-03-19T12:26:35.701Z,5.15
2023-03-19T12:30:13.779Z,3.45
2023-03-19T12:33:12.032Z,9.20
2023-03-19T12:35:42.304Z,5.70
2023-03-19T12:39:01.403Z,5.03
2023-03-19T12:41:29.918Z,7.50
2023-03-19T12:44:22.230Z,5.43
2023-03-19T12:46:59.304Z,6.57
2023-03-19T12:49:52.641Z,3.50
2023-03-19T12:52:35.168Z,5.47
2023-03-19T12:55:40.063Z,6.03
2023-03-19T12:58:12.978Z,10.50
2023-03-19T13:01:02.588Z,4.22
2023-03-19T13:03:54.809Z,6.80
2023-03-19T13:07:06.386Z,7.05
2023-03-19T13:09:39.001Z,4.22
2023-03-19T13:12:14.618Z,4.60
2023-03-19T13:15:13.019Z,15.23
2023-03-19T13:18:13.555Z,7.47
2023-03-19T13:21:02.727Z,4.10
2023-03-19T13:23:37.489Z,6.95
2023-03-19T13:26:08.263Z,11.82
2023-03-19T13:28:38.288Z,4.78
2023-03-19T13:31:20.996Z,8.35
2023-03-19T13:34:18.681Z,6.32
2023-03-19T13:37:01.724Z,5.53
2023-03-19T13:39:33.149Z,5.20
2023-03-19T13:42:29.464Z,4.45
2023-03-19T13:45:05.461Z,7.28
2023-03-19T13:47:33.015Z,7.18
2023-03-19T13:50:11.346Z,5.90
2023-03-19T13:52:45.205Z,4.43
2023-03-19T13:55:34.626Z,5.18
2023-03-19T13:58:17.919Z,2.35
2023-03-19T14:00:45.447Z,2.63
2023-03-19T14:03:24.483Z,4.65
2023-03-19T14:05:54.729Z,2.70
2023-03-19T14:08:34.758Z,2.28
2023-03-19T14:11:06.731Z,6.30
2023-03-19T14:13:49.154Z,2.45
2023-03-19T14:16:25.019Z,3.35
2023-03-19T14:18:58.914Z,2.35
2023-03-19T14:21:47.029Z,3.72
2023-03-19T14:24:56.772Z,3.92
2023-03-19T14:27:18.618Z,3.63
2023-03-19T14:29:47.708Z,2.60
2023-03-19T14:32:21.949Z,3.20
2023-03-19T14:34:50.619Z,3.83
2023-03-19T14:37:37.679Z,2.35
2023-03-19T14:40:17.883Z,4.22
2023-03-19T14:46:43.463Z,3.08
2023-03-19T14:49:11.896Z,3.63
2023-03-19T14:52:14.774Z,1.33
2023-03-19T14:54:55.868Z,1.95
2023-03-19T14:57:28.682Z,5.50
2023-03-19T14:59:57.786Z,3.00
2023-03-19T15:02:48.182Z,3.75
2023-03-19T15:05:25.725Z,3.78
2023-03-19T15:07:58.743Z,6.18
2023-03-19T15:10:29.865Z,1.33
2023-03-19T15:13:21.651Z,4.63
2023-03-19T15:15:55.262Z,3.92
2023-03-19T15:18:23.762Z,2.88
2023-03-19T15:20:55.347Z,5.53
2023-03-19T15:23:28.328Z,5.63
2023-03-19T15:25:58.342Z,4.35
2023-03-19T15:28:28.344Z,5.07
2023-03-19T15:31:05.705Z,15.88
2023-03-19T15:33:42.731Z,8.73
2023-03-19T15:36:22.396Z,7.78
2023-03-19T15:38:57.497Z,6.32
2023-03-19T15:41:26.594Z,5.70
2023-03-19T15:43:55.013Z,9.30
2023-03-19T15:46:27.111Z,3.42
2023-03-19T15:49:05.818Z,2.88
2023-03-19T15:51:33.894Z,3.60
2023-03-19T15:54:02.738Z,9.07
2023-03-19T15:56:32.633Z,4.75
2023-03-19T15:59:01.298Z,6.15
2023-03-19T16:01:31.465Z,5.30
2023-03-19T16:04:06.275Z,4.93
2023-03-19T16:06:39.680Z,5.78
2023-03-19T16:09:26.793Z,6.13
2023-03-19T16:11:56.109Z,5.20
2023-03-19T16:14:52.863Z,5.65
2023-03-19T16:17:20.788Z,6.45
2023-03-19T16:19:52.530Z,3.42
2023-03-19T16:22:33.366Z,4.40
2023-03-19T16:25:02.714Z,4.53
2023-03-19T16:27:37.425Z,5.22
2023-03-19T16:30:14.250Z,7.63
2023-03-19T16:32:42.847Z,6.50
2023-03-19T16:35:21.674Z,4.63
2023-03-19T16:38:10.323Z,4.72
2023-03-19T16:40:43.888Z,5.75
2023-03-19T16:43:23.105Z,6.25
2023-03-19T16:45:52.785Z,4.75
2023-03-19T16:48:20.080Z,8.70
2023-03-19T16:50:47.750Z,6.50
2023-03-19T16:53:27.356Z,7.20
2023-03-19T16:55:56.816Z,6.53
2023-03-19T16:58:44.618Z,5.70
2023-03-19T17:01:20.769Z,4.55
2023-03-19T17:03:49.753Z,5.03
2023-03-19T17:06:18.087Z,3.78
2023-03-19T17:08:48.490Z,4.15
2023-03-19T17:11:30.365Z,5.80
2023-03-19T17:13:59.458Z,23.80
2023-03-19T17:16:28.594Z,97.25
2023-03-19T17:18:57.583Z,43.85
2023-03-19T17:21:36.541Z,16.85
2023-03-19T17:24:24.195Z,7.53
2023-03-19T17:26:52.614Z,7.32
2023-03-19T17:29:23.274Z,4.20
2023-03-19T17:31:50.856Z,6.53
2023-03-19T17:34:22.172Z,8.27
2023-03-19T17:36:56.344Z,5.20
2023-03-19T17:39:25.088Z,10.05
2023-03-19T17:41:54.309Z,6.82
2023-03-19T17:44:21.598Z,7.28
2023-03-19T17:46:52.290Z,8.75
2023-03-19T17:49:29.301Z,7.90
2023-03-19T17:51:57.204Z,10.88
2023-03-19T17:54:27.092Z,6.28
2023-03-19T17:56:55.597Z,5.95
2023-03-19T17:59:23.402Z,6.70
2023-03-19T18:01:51.124Z,6.75
2023-03-19T18:04:20.737Z,6.55
2023-03-19T18:06:57.242Z,6.03
2023-03-19T18:09:28.667Z,6.95
2023-03-19T18:11:56.251Z,6.18
2023-03-19T18:14:23.527Z,7.95
2023-03-19T18:16:51.165Z,7.70
2023-03-19T18:19:30.506Z,9.50
2023-03-19T18:21:58.074Z,9.57
2023-03-19T18:24:26.451Z,8.05
2023-03-19T18:26:53.698Z,8.90
2023-03-19T18:29:21.249Z,9.07
2023-03-19T18:31:53.371Z,8.93
2023-03-19T18:34:21.014Z,8.50
2023-03-19T18:36:48.519Z,12.15
2023-03-19T18:39:16.839Z,10.23
2023-03-19T18:41:44.192Z,10.48
2023-03-19T18:44:12.723Z,9.88
2023-03-19T18:46:40.991Z,13.45
2023-03-19T18:49:23.109Z,10.25
2023-03-19T18:52:02.063Z,12.90
2023-03-19T18:54:31.700Z,8.73
2023-03-19T18:57:02.850Z,9.60
2023-03-19T18:59:33.338Z,11.38
2023-03-19T19:02:04.585Z,9.85
2023-03-19T19:04:32.166Z,13.68
2023-03-19T19:07:02.417Z,8.65
2023-03-19T19:09:29.978Z,9.40
2023-03-19T19:12:00.708Z,10.05
2023-03-19T19:14:28.749Z,13.07
2023-03-19T19:16:57.228Z,11.50
2023-03-19T19:19:27.979Z,13.27
2023-03-19T19:21:55.209Z,15.00
2023-03-19T19:24:22.588Z,14.95
2023-03-19T19:26:54.379Z,14.45
2023-03-19T19:29:25.498Z,15.57
2023-03-19T19:31:54.225Z,11.90
2023-03-19T19:34:22.699Z,14.45
2023-03-19T19:36:51.633Z,13.13
2023-03-19T19:39:19.274Z,12.20
2023-03-19T19:41:46.892Z,15.98
2023-03-19T19:44:22.548Z,19.83
2023-03-19T19:46:53.511Z,11.15
2023-03-19T19:49:21.996Z,12.20
2023-03-19T19:51:49.110Z,12.07
2023-03-19T19:54:16.395Z,15.80
2023-03-19T19:56:43.750Z,13.77
2023-03-19T19:59:15.139Z,13.10
2023-03-19T20:01:42.702Z,12.32
2023-03-19T20:04:14.375Z,12.55
2023-03-19T20:06:41.912Z,12.68
2023-03-19T20:09:09.254Z,11.73
2023-03-19T20:11:36.806Z,9.95
2023-03-19T20:14:04.043Z,18.30
2023-03-19T20:16:31.444Z,10.95
2023-03-19T20:18:58.736Z,11.98
2023-03-19T20:21:26.461Z,11.15
2023-03-19T20:23:55.722Z,12.38
2023-03-19T20:26:25.208Z,11.70
2023-03-19T20:28:53.468Z,14.80
2023-03-19T20:31:26.946Z,10.57
2023-03-19T20:33:54.621Z,11.77
2023-03-19T20:36:22.125Z,14.15
2023-03-19T20:38:49.622Z,13.75
2023-03-19T20:41:23.054Z,11.68
2023-03-19T20:43:52.336Z,14.23
2023-03-19T20:46:22.015Z,14.85
2023-03-19T20:48:49.649Z,13.82
2023-03-19T20:51:21.766Z,14.90
2023-03-19T20:53:51.607Z,17.42
2023-03-19T20:56:24.785Z,16.13
2023-03-19T20:58:55.106Z,15.82
2023-03-19T21:01:22.742Z,15.05
2023-03-19T21:03:50.170Z,17.85
2023-03-19T21:06:21.404Z,17.65
2023-03-19T21:08:55.302Z,15.85
2023-03-19T21:11:24.318Z,18.95
2023-03-19T21:16:29.396Z,16.70
2023-03-19T21:18:57.669Z,19.35
2023-03-19T21:21:32.757Z,19.73
2023-03-19T21:24:05.639Z,22.08
2023-03-19T21:26:37.636Z,20.65
2023-03-19T21:29:09.275Z,30.05
2023-03-19T21:31:36.575Z,22.63
2023-03-19T21:34:03.942Z,19.23
2023-03-19T21:36:31.595Z,22.23
2023-03-19T21:38:58.889Z,23.33
2023-03-19T21:41:33.538Z,20.88
2023-03-19T21:44:04.579Z,24.23
2023-03-19T21:46:33.115Z,23.33
2023-03-19T21:49:00.665Z,20.00
2023-03-19T21:51:30.391Z,21.23
2023-03-19T21:53:58.703Z,21.27
2023-03-19T21:56:34.132Z,20.52
2023-03-19T21:59:04.485Z,19.67
2023-03-19T22:01:31.888Z,15.75
2023-03-19T22:03:59.209Z,18.80
2023-03-19T22:06:26.850Z,17.98
2023-03-19T22:08:54.987Z,21.30
2023-03-19T22:11:34.872Z,23.98
2023-03-19T22:14:10.183Z,22.80
2023-03-19T22:19:05.444Z,23.70
2023-03-19T22:21:34.229Z,27.38
2023-03-19T22:24:01.579Z,29.10
2023-03-19T22:26:35.031Z,28.50
2023-03-19T22:29:11.418Z,28.92
2023-03-19T22:31:39.177Z,29.70
2023-03-19T22:34:07.034Z,33.65
2023-03-19T22:36:34.321Z,29.30
2023-03-19T22:39:01.546Z,24.85
2023-03-19T22:41:34.587Z,32.47
2023-03-19T22:44:05.609Z,33.33
2023-03-19T22:46:33.590Z,23.02
2023-03-19T22:49:01.883Z,20.67
2023-03-19T22:51:29.353Z,21.15
2023-03-19T22:53:57.149Z,28.42
2023-03-19T22:56:24.479Z,29.55
2023-03-19T22:58:52.710Z,34.83
2023-03-19T23:01:41.094Z,46.28
2023-03-19T23:04:28.199Z,66.20
2023-03-19T23:06:57.222Z,113.13
2023-03-19T23:09:31.146Z,100.55
2023-03-19T23:11:59.723Z,90.20
2023-03-19T23:14:30.550Z,95.57
2023-03-19T23:17:03.884Z,94.35
2023-03-19T23:19:33.955Z,145.27
2023-03-19T23:22:03.598Z,78.88
2023-03-19T23:24:31.433Z,77.85
2023-03-19T23:27:00.293Z,112.88
2023-03-19T23:29:31.395Z,93.50
2023-03-19T23:32:02.028Z,182.68
2023-03-19T23:34:29.313Z,81.03
2023-03-19T23:36:58.208Z,82.25
2023-03-19T23:39:25.927Z,70.00
2023-03-19T23:41:57.222Z,97.68
2023-03-19T23:44:24.768Z,118.68
2023-03-19T23:46:52.726Z,83.90
2023-03-19T23:49:32.656Z,83.43
2023-03-19T23:52:02.125Z,74.13
2023-03-19T23:54:32.454Z,76.95
2023-03-19T23:57:03.319Z,66.57
2023-03-19T23:59:35.818Z,74.95
